createdAt,value
2022-07-25T00:01:08.644Z,99.90
2022-07-25T00:03:39.125Z,99.90
2022-07-25T00:06:08.041Z,99.90
2022-07-25T00:08:43.082Z,99.90
2022-07-25T00:11:11.168Z,99.90
2022-07-25T00:13:39.197Z,99.90
2022-07-25T00:16:07.963Z,99.90
2022-07-25T00:18:36.098Z,99.90
2022-07-25T00:21:04.324Z,99.90
2022-07-25T00:23:32.364Z,99.90
2022-07-25T00:26:01.806Z,99.90
2022-07-25T00:28:29.905Z,99.90
2022-07-25T00:30:58.032Z,99.90
2022-07-25T00:33:26.200Z,99.90
2022-07-25T00:35:54.313Z,99.90
2022-07-25T00:38:22.342Z,99.90
2022-07-25T00:40:55.471Z,99.90
2022-07-25T00:43:25.417Z,99.90
2022-07-25T00:45:53.547Z,99.90
2022-07-25T00:48:21.605Z,99.90
2022-07-25T00:50:49.674Z,99.90
2022-07-25T00:53:17.960Z,99.90
2022-07-25T00:55:47.435Z,99.90
2022-07-25T00:58:15.484Z,99.90
2022-07-25T01:00:44.987Z,99.90
2022-07-25T01:03:13.190Z,99.90
2022-07-25T01:05:41.656Z,99.90
2022-07-25T01:08:10.927Z,99.90
2022-07-25T01:10:39.802Z,99.90
2022-07-25T01:13:08.488Z,99.90
2022-07-25T01:15:36.749Z,99.90
2022-07-25T01:18:08.863Z,99.90
2022-07-25T01:20:38.337Z,99.90
2022-07-25T01:23:06.513Z,99.90
2022-07-25T01:25:34.555Z,99.90
2022-07-25T01:28:02.640Z,99.90
2022-07-25T01:30:30.785Z,99.90
2022-07-25T01:32:58.817Z,99.90
2022-07-25T01:35:27.083Z,99.90
2022-07-25T01:37:56.471Z,99.90
2022-07-25T01:40:24.500Z,99.90
2022-07-25T01:42:52.592Z,99.90
2022-07-25T01:45:20.724Z,99.90
2022-07-25T01:47:48.756Z,99.90
2022-07-25T01:50:16.852Z,99.90
2022-07-25T01:52:45.238Z,99.90
2022-07-25T01:55:14.960Z,99.90
2022-07-25T01:57:49.382Z,99.90
2022-07-25T02:00:18.874Z,99.90
2022-07-25T02:02:47.579Z,99.90
2022-07-25T02:05:16.665Z,99.90
2022-07-25T02:07:44.760Z,99.90
2022-07-25T02:10:14.145Z,99.90
2022-07-25T02:12:42.200Z,99.90
2022-07-25T02:15:11.028Z,99.90
2022-07-25T02:17:39.309Z,99.90
2022-07-25T02:20:08.459Z,99.90
2022-07-25T02:22:36.541Z,99.90
2022-07-25T02:25:04.783Z,99.90
2022-07-25T02:27:34.235Z,99.90
2022-07-25T02:30:02.283Z,99.90
2022-07-25T02:32:30.319Z,99.90
2022-07-25T02:34:59.183Z,99.90
2022-07-25T02:37:27.209Z,99.90
2022-07-25T02:39:55.295Z,99.90
2022-07-25T02:42:23.346Z,99.90
2022-07-25T02:44:53.108Z,99.90
2022-07-25T02:47:21.157Z,99.90
2022-07-25T02:49:49.249Z,99.90
2022-07-25T02:52:17.324Z,99.90
2022-07-25T02:54:45.322Z,99.90
2022-07-25T02:57:13.388Z,99.90
2022-07-25T02:59:41.511Z,99.90
2022-07-25T03:02:10.936Z,99.90
2022-07-25T03:04:39.021Z,99.90
2022-07-25T03:07:07.150Z,99.90
2022-07-25T03:09:35.264Z,99.90
2022-07-25T03:12:03.318Z,99.90
2022-07-25T03:14:31.473Z,99.90
2022-07-25T03:16:59.642Z,99.90
2022-07-25T03:19:29.321Z,99.90
2022-07-25T03:21:57.358Z,99.90
2022-07-25T03:24:25.782Z,99.90
2022-07-25T03:26:55.045Z,99.90
2022-07-25T03:29:23.084Z,99.90
2022-07-25T03:31:51.299Z,99.90
2022-07-25T03:34:19.518Z,99.90
2022-07-25T03:36:49.053Z,99.90
2022-07-25T03:39:17.205Z,99.90
2022-07-25T03:41:45.471Z,99.90
2022-07-25T03:44:13.632Z,99.90
2022-07-25T03:46:41.721Z,99.90
2022-07-25T03:49:09.764Z,99.90
2022-07-25T03:51:37.853Z,99.90
2022-07-25T03:54:09.229Z,99.90
2022-07-25T03:56:40.287Z,99.90
2022-07-25T03:59:13.521Z,99.90
2022-07-25T04:01:42.216Z,99.90
2022-07-25T04:04:11.041Z,99.90
2022-07-25T04:06:39.712Z,99.90
2022-07-25T04:09:11.241Z,99.90
2022-07-25T04:11:39.505Z,99.90
2022-07-25T04:14:08.376Z,99.90
2022-07-25T04:16:36.912Z,99.90
2022-07-25T04:19:06.190Z,99.90
2022-07-25T04:21:34.582Z,99.90
2022-07-25T04:24:02.856Z,99.90
2022-07-25T04:26:32.541Z,99.90
2022-07-25T04:29:03.472Z,99.90
2022-07-25T04:31:31.912Z,99.90
2022-07-25T04:34:00.208Z,99.90
2022-07-25T04:36:28.259Z,99.90
2022-07-25T04:38:56.325Z,99.90
2022-07-25T04:41:24.355Z,99.90
2022-07-25T04:43:53.902Z,99.90
2022-07-25T04:46:23.129Z,99.90
2022-07-25T04:48:51.733Z,99.90
2022-07-25T04:51:20.336Z,99.90
2022-07-25T04:53:48.505Z,99.90
2022-07-25T04:56:16.809Z,99.90
2022-07-25T04:58:45.051Z,99.90
2022-07-25T05:01:14.630Z,99.90
2022-07-25T05:03:50.528Z,99.90
2022-07-25T05:06:19.513Z,99.90
2022-07-25T05:08:48.113Z,99.90
2022-07-25T05:11:16.176Z,99.90
2022-07-25T05:13:44.616Z,99.90
2022-07-25T05:16:14.295Z,99.90
2022-07-25T05:18:42.490Z,99.90
2022-07-25T05:21:12.188Z,99.90
2022-07-25T05:23:40.484Z,99.90
2022-07-25T05:26:08.515Z,99.90
2022-07-25T05:28:36.596Z,99.90
2022-07-25T05:31:04.772Z,99.90
2022-07-25T05:33:35.194Z,99.90
2022-07-25T05:36:05.126Z,99.90
2022-07-25T05:38:33.483Z,99.90
2022-07-25T05:41:01.610Z,99.90
2022-07-25T05:43:29.753Z,99.90
2022-07-25T05:46:02.775Z,99.90
2022-07-25T05:48:30.933Z,99.90
2022-07-25T12:05:05.706Z,79.20
2022-07-25T12:07:41.847Z,77.40
2022-07-25T12:10:12.189Z,77.80
2022-07-25T12:12:45.176Z,82.70
2022-07-25T12:15:14.983Z,82.10
2022-07-25T12:17:44.233Z,81.10
2022-07-25T12:20:18.643Z,82.10
2022-07-25T12:22:47.179Z,83.40
2022-07-25T12:25:15.652Z,82.00
2022-07-25T12:27:44.366Z,81.60
2022-07-25T12:30:13.671Z,79.50
2022-07-25T12:32:42.379Z,79.20
2022-07-25T12:35:12.443Z,83.60
2022-07-25T12:37:42.877Z,85.90
2022-07-25T12:40:13.874Z,85.10
2022-07-25T12:42:42.176Z,81.60
2022-07-25T12:45:11.173Z,75.30
2022-07-25T12:47:39.974Z,67.90
2022-07-25T12:50:09.073Z,67.50
2022-07-25T12:52:38.256Z,63.50
2022-07-25T12:55:09.699Z,62.10
2022-07-25T12:57:38.551Z,61.30
2022-07-25T13:00:10.522Z,57.60
2022-07-25T13:02:39.085Z,57.80
2022-07-25T13:05:08.276Z,56.90
2022-07-25T13:07:36.500Z,57.80
2022-07-25T13:10:05.368Z,57.90
2022-07-25T13:12:34.897Z,65.80
2022-07-25T13:15:03.130Z,64.50
2022-07-25T13:17:32.389Z,62.40
2022-07-25T13:20:00.672Z,63.70
2022-07-25T13:22:29.150Z,61.80
2022-07-25T13:24:57.243Z,62.70
2022-07-25T13:27:25.443Z,60.10
2022-07-25T13:29:55.158Z,62.50
2022-07-25T13:32:24.835Z,59.30
2022-07-25T13:34:52.903Z,57.50
2022-07-25T13:37:21.134Z,57.40
2022-07-25T13:39:49.346Z,55.50
2022-07-25T13:42:17.542Z,52.40
2022-07-25T13:44:45.652Z,53.70
2022-07-25T13:47:15.275Z,55.10
2022-07-25T13:49:43.516Z,55.70
2022-07-25T13:52:15.520Z,57.70
2022-07-25T13:54:43.909Z,58.70
2022-07-25T13:57:12.156Z,58.90
2022-07-25T13:59:40.363Z,58.40
2022-07-25T14:02:08.745Z,59.50
2022-07-25T14:04:38.338Z,60.70
2022-07-25T14:07:06.755Z,59.20
2022-07-25T14:09:35.032Z,58.00
2022-07-25T14:12:03.480Z,57.50
2022-07-25T14:14:31.575Z,59.80
2022-07-25T14:16:59.772Z,59.60
2022-07-25T14:19:27.991Z,59.20
2022-07-25T14:21:57.547Z,60.20
2022-07-25T14:24:25.838Z,58.10
2022-07-25T14:26:55.148Z,58.30
2022-07-25T14:29:28.611Z,59.70
2022-07-25T14:31:58.742Z,59.80
2022-07-25T14:34:26.984Z,59.50
2022-07-25T14:36:55.171Z,59.70
2022-07-25T14:39:24.708Z,59.50
2022-07-25T14:41:53.270Z,59.00
2022-07-25T14:44:21.927Z,59.50
2022-07-25T14:46:51.303Z,60.80
2022-07-25T14:49:19.592Z,63.00
2022-07-25T14:51:48.830Z,62.40
2022-07-25T14:54:17.221Z,65.30
2022-07-25T14:56:46.906Z,64.30
2022-07-25T14:59:15.052Z,66.80
2022-07-25T15:01:43.580Z,65.50
2022-07-25T15:04:11.793Z,65.10
2022-07-25T15:06:40.000Z,65.70
2022-07-25T15:09:08.697Z,67.00
2022-07-25T15:11:37.380Z,67.30
2022-07-25T15:14:06.957Z,68.20
2022-07-25T15:16:35.406Z,65.30
2022-07-25T15:19:16.319Z,67.00
2022-07-25T15:21:45.395Z,64.00
2022-07-25T15:24:13.737Z,64.10
2022-07-25T15:26:42.173Z,64.10
2022-07-25T15:29:13.522Z,64.60
2022-07-25T15:31:41.785Z,66.50
2022-07-25T15:34:09.872Z,67.40
2022-07-25T15:36:38.080Z,67.10
2022-07-25T15:39:06.475Z,68.40
2022-07-25T15:41:35.011Z,68.00
2022-07-25T15:44:03.363Z,67.90
2022-07-25T15:46:33.075Z,69.10
2022-07-25T15:49:02.577Z,68.40
2022-07-25T15:51:30.752Z,69.80
2022-07-25T15:53:58.833Z,70.30
2022-07-25T15:56:26.971Z,69.00
2022-07-25T15:58:55.523Z,70.50
2022-07-25T16:01:23.660Z,70.30
2022-07-25T16:03:53.395Z,69.50
2022-07-25T16:06:22.308Z,68.90
2022-07-25T16:08:51.816Z,68.20
2022-07-25T16:11:20.131Z,67.70
2022-07-25T16:13:51.398Z,67.60
2022-07-25T16:16:26.123Z,67.70
2022-07-25T16:19:01.409Z,69.00
2022-07-25T16:21:31.771Z,69.30
2022-07-25T16:24:00.260Z,70.40
2022-07-25T16:26:41.439Z,72.50
2022-07-25T16:29:10.081Z,71.50
2022-07-25T16:31:38.583Z,72.30
2022-07-25T16:34:09.373Z,72.10
2022-07-25T16:36:40.204Z,72.10
2022-07-25T16:39:09.415Z,72.80
2022-07-25T16:41:49.108Z,73.10
2022-07-25T16:44:18.287Z,72.50
2022-07-25T16:46:46.795Z,72.10
2022-07-25T16:49:16.890Z,72.70
2022-07-25T16:51:46.093Z,73.30
2022-07-25T16:54:14.562Z,72.90
2022-07-25T16:56:43.374Z,73.00
2022-07-25T16:59:11.946Z,72.30
2022-07-25T17:01:40.282Z,73.60
2022-07-25T17:04:12.909Z,74.00
2022-07-25T17:06:43.170Z,72.80
2022-07-25T17:09:11.751Z,71.20
2022-07-25T17:11:39.950Z,71.40
2022-07-25T17:14:08.078Z,72.30
2022-07-25T17:16:36.189Z,72.10
2022-07-25T17:19:05.280Z,73.60
2022-07-25T17:21:33.582Z,74.90
2022-07-25T17:24:03.162Z,75.90
2022-07-25T17:26:31.334Z,77.20
2022-07-25T17:28:59.661Z,78.10
2022-07-25T17:31:28.051Z,78.30
2022-07-25T17:33:56.165Z,78.70
2022-07-25T17:36:24.271Z,79.90
2022-07-25T17:38:52.503Z,79.70
2022-07-25T17:41:22.152Z,80.40
2022-07-25T17:43:52.337Z,80.40
2022-07-25T17:46:20.546Z,81.00
2022-07-25T17:48:48.767Z,80.90
2022-07-25T17:51:16.924Z,80.60
2022-07-25T17:53:45.075Z,80.30
2022-07-25T17:56:13.079Z,80.50
2022-07-25T17:58:42.612Z,80.80
2022-07-25T18:01:10.888Z,80.90
2022-07-25T18:03:39.257Z,81.00
2022-07-25T18:06:07.461Z,80.70
2022-07-25T18:08:36.086Z,81.00
2022-07-25T18:11:04.452Z,80.60
2022-07-25T18:13:32.752Z,81.30
2022-07-25T18:16:02.289Z,80.60
2022-07-25T18:18:31.599Z,80.50
2022-07-25T18:20:59.742Z,80.90
2022-07-25T18:23:28.788Z,81.00
2022-07-25T18:25:56.873Z,81.40
2022-07-25T18:28:25.265Z,81.30
2022-07-25T18:30:55.000Z,81.90
2022-07-25T18:33:25.561Z,81.60
2022-07-25T18:35:53.759Z,82.20
2022-07-25T18:38:21.935Z,82.10
2022-07-25T18:41:06.568Z,82.50
2022-07-25T18:43:38.266Z,82.10
2022-07-25T18:46:06.586Z,82.20
2022-07-25T18:48:39.105Z,82.50
2022-07-25T18:51:07.531Z,82.60
2022-07-25T18:53:36.295Z,82.40
2022-07-25T18:56:06.695Z,82.50
2022-07-25T18:58:35.487Z,78.30
2022-07-25T19:01:03.979Z,76.60
2022-07-25T19:03:34.052Z,75.10
2022-07-25T19:06:03.885Z,75.20
2022-07-25T19:08:33.164Z,75.00
2022-07-25T19:11:01.366Z,75.00
2022-07-25T19:16:18.218Z,75.60
2022-07-25T19:18:46.406Z,74.60
2022-07-25T19:21:16.764Z,75.20
2022-07-25T19:23:50.496Z,75.00
2022-07-25T19:26:20.029Z,76.10
2022-07-25T19:28:48.474Z,75.30
2022-07-25T19:31:16.773Z,75.20
2022-07-25T19:33:46.143Z,75.90
2022-07-25T19:36:16.003Z,76.20
2022-07-25T19:38:44.144Z,76.60
2022-07-25T19:41:12.217Z,77.00
2022-07-25T19:43:40.373Z,76.90
2022-07-25T19:46:08.567Z,77.90
2022-07-25T19:48:36.748Z,78.30
2022-07-25T19:51:05.052Z,77.80
2022-07-25T19:53:34.499Z,78.30
2022-07-25T19:56:02.678Z,78.60
2022-07-25T19:58:34.085Z,78.90
2022-07-25T20:01:04.915Z,79.10
2022-07-25T20:03:33.017Z,79.70
2022-07-25T20:06:06.027Z,80.00
2022-07-25T20:08:39.381Z,80.90
2022-07-25T20:11:07.827Z,80.80
2022-07-25T20:13:36.158Z,81.60
2022-07-25T20:16:04.847Z,83.00
2022-07-25T20:18:33.371Z,83.50
2022-07-25T20:21:02.029Z,82.80
2022-07-25T20:23:30.745Z,84.20
2022-07-25T20:26:02.254Z,84.40
2022-07-25T20:28:30.481Z,85.10
2022-07-25T20:30:59.345Z,84.80
2022-07-25T20:33:27.997Z,85.00
2022-07-25T20:35:56.697Z,84.40
2022-07-25T20:38:28.400Z,86.30
2022-07-25T20:40:56.876Z,87.40
2022-07-25T20:43:26.656Z,87.30
2022-07-25T20:45:55.303Z,88.00
2022-07-25T20:48:23.498Z,86.80
2022-07-25T20:51:04.675Z,86.60
2022-07-25T20:56:29.411Z,86.80
2022-07-25T21:02:41.876Z,86.50
2022-07-25T21:05:40.886Z,87.40
2022-07-25T21:08:17.617Z,88.50
2022-07-25T21:11:07.727Z,89.40
2022-07-25T21:16:51.219Z,90.50
2022-07-25T21:19:37.433Z,90.80
2022-07-25T21:22:15.214Z,91.50
2022-07-25T21:25:12.309Z,91.60
2022-07-25T21:28:05.782Z,92.10
2022-07-25T21:30:37.482Z,92.50
2022-07-25T21:33:14.426Z,92.60
2022-07-25T21:35:46.749Z,93.10
2022-07-25T21:38:26.757Z,93.90
2022-07-25T21:40:57.363Z,94.20
2022-07-25T21:43:25.661Z,94.80
2022-07-25T21:45:53.725Z,95.70
2022-07-25T21:48:43.932Z,96.50
2022-07-25T21:51:14.107Z,97.00
2022-07-25T21:53:47.727Z,97.70
2022-07-25T22:02:02.141Z,99.40
2022-07-25T22:04:54.538Z,99.90
2022-07-25T22:07:29.274Z,99.90
2022-07-25T22:10:16.057Z,99.90
2022-07-25T22:16:14.310Z,99.90
2022-07-25T22:25:40.480Z,99.90
2022-07-25T22:28:26.360Z,99.90
2022-07-25T22:31:52.408Z,99.90
2022-07-25T22:34:44.154Z,99.90
2022-07-25T22:40:42.403Z,99.90
2022-07-25T22:46:21.532Z,99.90
2022-07-25T22:49:27.350Z,99.90
2022-07-25T22:52:02.767Z,99.90
2022-07-25T22:54:44.565Z,99.90
2022-07-25T22:57:37.799Z,99.90
2022-07-25T23:00:43.631Z,99.90
2022-07-25T23:03:42.841Z,99.90
2022-07-25T23:12:45.057Z,99.90
2022-07-25T23:18:39.826Z,99.90
2022-07-25T23:27:48.757Z,99.40
2022-07-25T23:30:54.018Z,99.60
2022-07-25T23:33:57.086Z,99.40
2022-07-25T23:42:18.376Z,99.10
2022-07-25T23:45:02.452Z,99.80
2022-07-25T23:47:47.249Z,99.90
2022-07-25T23:50:32.823Z,99.90
2022-07-25T23:53:22.317Z,99.90
2022-07-25T23:56:25.850Z,99.90
